Time;durP1;ratioP1;P1;durP2;ratioP2;P2;SDS_P1;SDS_P2;PMS_P1;PMS_P2;Temp;Humidity;BMP_temperature;BMP_pressure;BME280_temperature;BME280_humidity;BME280_pressure;Samples;Min_cycle;Max_cycle;Signal;HPM_P1;HPM_P2
2024/01/26 00:00:05;;;;;;;19.65;14.10;;;;;;;9.82;100.00;102270.03;4996218;28;20144;-81
2024/01/26 00:02:31;;;;;;;21.13;14.65;;;;;;;9.84;100.00;102278.88;5013692;28;20030;-82
2024/01/26 00:04:56;;;;;;;20.48;13.60;;;;;;;9.85;100.00;102282.41;5013381;28;20041;-82
2024/01/26 00:07:22;;;;;;;21.48;14.80;;;;;;;9.80;100.00;102266.41;5013612;28;20042;-82
2024/01/26 00:09:47;;;;;;;21.83;13.90;;;;;;;9.86;100.00;102269.28;5013459;28;20410;-82
2024/01/26 00:12:13;;;;;;;22.17;14.25;;;;;;;9.90;100.00;102262.41;5013631;28;20062;-82
2024/01/26 00:14:38;;;;;;;17.27;12.95;;;;;;;9.89;100.00;102257.94;5013237;28;20061;-82
2024/01/26 00:17:03;;;;;;;19.98;13.40;;;;;;;9.89;100.00;102257.94;5013549;28;20052;-82
2024/01/26 00:19:29;;;;;;;17.38;12.27;;;;;;;9.89;100.00;102255.28;5013499;28;20072;-82
2024/01/26 00:21:54;;;;;;;19.98;13.05;;;;;;;9.88;100.00;102259.66;5013210;28;20128;-82
2024/01/26 00:24:20;;;;;;;19.50;12.93;;;;;;;9.77;100.00;102224.97;5013191;28;20034;-82
2024/01/26 00:26:46;;;;;;;17.85;12.55;;;;;;;9.90;100.00;102241.28;5013329;28;20034;-82
2024/01/26 00:29:12;;;;;;;17.65;12.93;;;;;;;9.94;100.00;102249.34;5013266;28;20045;-82
2024/01/26 00:31:37;;;;;;;19.17;13.32;;;;;;;9.88;100.00;102235.03;5013373;28;20390;-82
2024/01/26 00:34:02;;;;;;;20.60;12.70;;;;;;;9.88;100.00;102238.56;5013387;28;20037;-82
2024/01/26 00:36:28;;;;;;;19.00;12.90;;;;;;;9.94;100.00;102253.75;5013384;28;20033;-82
2024/01/26 00:38:53;;;;;;;17.48;12.05;;;;;;;9.87;100.00;102238.50;5013063;28;20030;-82
2024/01/26 00:41:18;;;;;;;15.75;12.35;;;;;;;9.92;100.00;102236.94;5013588;28;20034;-82
2024/01/26 00:43:44;;;;;;;19.67;12.43;;;;;;;9.94;100.00;102243.19;5012950;28;20041;-82
2024/01/26 00:46:09;;;;;;;15.80;11.32;;;;;;;9.85;100.00;102226.97;5013249;28;20064;-82
2024/01/26 00:48:34;;;;;;;15.82;11.75;;;;;;;9.92;100.00;102248.38;5013176;28;20449;-83
2024/01/26 00:51:00;;;;;;;18.75;11.88;;;;;;;9.94;100.00;102246.72;5013088;28;20467;-82
2024/01/26 00:53:25;;;;;;;14.60;11.15;;;;;;;9.91;100.00;102238.66;5012921;28;20390;-82
2024/01/26 00:55:51;;;;;;;17.20;12.10;;;;;;;9.94;100.00;102240.53;5013118;28;20379;-82
2024/01/26 00:58:16;;;;;;;19.50;12.10;;;;;;;9.85;100.00;102221.69;5014441;28;20053;-82
2024/01/26 01:00:42;;;;;;;15.50;11.95;;;;;;;9.87;100.00;102223.56;5016836;28;20386;-82
2024/01/26 01:03:07;;;;;;;14.45;11.40;;;;;;;9.93;100.00;102234.31;5016568;28;20463;-82
2024/01/26 01:05:32;;;;;;;14.65;10.65;;;;;;;9.93;100.00;102242.25;5016452;28;20505;-81
2024/01/26 01:07:58;;;;;;;13.75;10.02;;;;;;;9.80;100.00;102203.06;5016719;28;20030;-85
2024/01/26 01:10:24;;;;;;;14.90;10.27;;;;;;;9.92;100.00;102224.63;5016640;28;20034;-82
2024/01/26 01:12:50;;;;;;;14.43;9.43;;;;;;;9.97;100.00;102240.63;5016356;28;20038;-82
2024/01/26 01:15:17;;;;;;;14.50;10.23;;;;;;;9.89;100.00;102221.91;5016867;28;20360;-82
2024/01/26 01:17:43;;;;;;;13.68;9.70;;;;;;;9.82;100.00;102208.41;5016411;28;20042;-82
2024/01/26 01:20:10;;;;;;;13.00;9.65;;;;;;;9.87;100.00;102218.28;5016209;28;20093;-81
2024/01/26 01:22:39;;;;;;;11.35;8.70;;;;;;;9.96;100.00;102228.28;5016174;28;20034;-82
2024/01/26 01:25:06;;;;;;;11.35;8.68;;;;;;;9.90;100.00;102205.19;5016319;28;20531;-81
2024/01/26 01:27:32;;;;;;;12.50;9.02;;;;;;;9.96;100.00;102215.06;4998895;28;20033;-81
2024/01/26 01:29:57;;;;;;;12.27;8.77;;;;;;;9.98;100.00;102218.69;5016137;28;20071;-81
2024/01/26 01:32:23;;;;;;;10.50;8.95;;;;;;;9.97;100.00;102208.94;5016524;28;20030;-82
2024/01/26 01:34:48;;;;;;;12.38;9.18;;;;;;;9.96;100.00;102205.41;5016192;28;20030;-82
2024/01/26 01:37:13;;;;;;;13.73;9.13;;;;;;;9.94;100.00;102208.84;5016173;28;20034;-82
2024/01/26 01:39:39;;;;;;;12.93;8.40;;;;;;;9.95;100.00;102208.88;5016346;28;20438;-82
2024/01/26 01:42:04;;;;;;;11.32;8.18;;;;;;;9.87;100.00;102191.00;5015833;28;20096;-82
2024/01/26 01:44:30;;;;;;;11.02;6.88;;;;;;;9.92;100.00;102187.66;5015984;28;20038;-81
2024/01/26 01:46:56;;;;;;;12.93;7.78;;;;;;;9.94;100.00;102195.66;5016220;28;20115;-83
2024/01/26 01:49:22;;;;;;;8.18;6.75;;;;;;;9.96;100.00;102205.41;5015955;28;20088;-83
2024/01/26 01:51:51;;;;;;;8.20;6.07;;;;;;;9.93;100.00;102196.47;5015817;28;20034;-82
2024/01/26 01:54:18;;;;;;;9.68;6.63;;;;;;;9.86;100.00;102166.34;5015454;28;20026;-82
2024/01/26 01:56:44;;;;;;;8.45;6.55;;;;;;;9.92;100.00;102178.84;5016037;28;20034;-82
2024/01/26 01:59:09;;;;;;;8.73;6.72;;;;;;;9.90;100.00;102176.16;5015463;28;20029;-81
2024/01/26 02:01:35;;;;;;;10.25;6.40;;;;;;;9.92;100.00;102178.84;5015701;28;20040;-82
2024/01/26 02:04:02;;;;;;;11.07;6.25;;;;;;;9.86;100.00;102162.81;5015431;28;20394;-82
2024/01/26 02:06:28;;;;;;;9.95;7.00;;;;;;;9.96;100.00;102180.75;5015588;28;20467;-82
2024/01/26 02:08:53;;;;;;;8.90;6.38;;;;;;;9.93;100.00;102172.72;5015125;28;20048;-81
2024/01/26 02:11:19;;;;;;;8.18;6.35;;;;;;;9.96;100.00;102179.00;5015465;28;20033;-81
2024/01/26 02:13:44;;;;;;;7.32;6.00;;;;;;;9.88;100.00;102153.16;5015164;28;20062;-81
2024/01/26 02:16:09;;;;;;;7.47;5.50;;;;;;;9.87;100.00;102154.03;5015137;28;20034;-81
2024/01/26 02:18:35;;;;;;;9.38;5.53;;;;;;;9.93;100.00;102162.16;5015364;28;20363;-81
2024/01/26 02:21:00;;;;;;;8.02;5.60;;;;;;;9.83;100.00;102137.19;5015624;28;20536;-82
2024/01/26 02:23:26;;;;;;;6.90;4.75;;;;;;;9.91;100.00;102146.25;5014740;28;20462;-82
2024/01/26 02:25:51;;;;;;;8.60;4.93;;;;;;;9.79;100.00;102125.59;4997371;28;20065;-82
2024/01/26 02:28:17;;;;;;;6.85;5.20;;;;;;;9.88;100.00;102129.41;5014957;28;20030;-82
2024/01/26 02:30:42;;;;;;;7.10;5.07;;;;;;;9.90;100.00;102128.63;5014754;28;20029;-82
2024/01/26 02:33:07;;;;;;;7.38;5.43;;;;;;;9.95;100.00;102131.44;5014630;28;20054;-82
2024/01/26 02:35:33;;;;;;;8.63;4.97;;;;;;;9.92;100.00;102126.03;5014579;28;20471;-82
2024/01/26 02:37:58;;;;;;;6.47;5.35;;;;;;;10.01;100.00;102150.09;5014481;28;20034;-83
2024/01/26 02:40:23;;;;;;;7.22;4.88;;;;;;;9.99;100.00;102138.59;5014415;28;20070;-82
2024/01/26 02:42:49;;;;;;;7.90;4.72;;;;;;;9.98;100.00;102127.16;5014406;28;20037;-82
2024/01/26 02:45:14;;;;;;;8.77;5.20;;;;;;;10.02;100.00;102121.13;5014634;28;20033;-81
2024/01/26 02:47:40;;;;;;;5.88;4.70;;;;;;;9.99;100.00;102126.31;5014231;28;20077;-81
2024/01/26 02:50:06;;;;;;;7.45;4.45;;;;;;;9.99;100.00;102128.94;5014510;28;20125;-82
2024/01/26 02:52:32;;;;;;;7.60;4.28;;;;;;;9.93;100.00;102115.50;5014318;28;20489;-81
2024/01/26 02:54:57;;;;;;;6.35;4.43;;;;;;;9.98;100.00;102113.06;5014096;28;20026;-82
2024/01/26 02:57:23;;;;;;;7.18;4.53;;;;;;;9.95;100.00;102107.66;5014623;28;20088;-82
2024/01/26 02:59:48;;;;;;;6.20;4.55;;;;;;;9.96;100.00;102110.34;5014290;28;20044;-82
2024/01/26 03:02:14;;;;;;;5.55;4.53;;;;;;;9.90;100.00;102094.31;5014330;28;20099;-82
2024/01/26 03:04:39;;;;;;;5.15;4.47;;;;;;;10.03;100.00;102106.19;5014286;28;20455;-82
2024/01/26 03:07:04;;;;;;;6.35;4.68;;;;;;;10.01;100.00;102098.19;5014243;28;20116;-82
2024/01/26 03:09:30;;;;;;;6.05;4.03;;;;;;;10.01;100.00;102097.28;5014093;28;20459;-84
2024/01/26 03:11:55;;;;;;;6.38;4.70;;;;;;;10.02;100.00;102083.22;5013909;28;20129;-82
2024/01/26 03:14:20;;;;;;;10.60;4.65;;;;;;;10.05;100.00;102088.63;5014098;28;20037;-82
2024/01/26 03:16:46;;;;;;;5.45;4.15;;;;;;;10.08;100.00;102095.75;5014296;28;20034;-85
2024/01/26 03:19:12;;;;;;;6.30;4.30;;;;;;;10.07;100.00;102089.59;4980268;28;20471;-82
2024/01/26 03:21:42;;;;;;;5.90;4.28;;;;;;;9.97;100.00;102059.31;5013266;28;20029;-82
2024/01/26 03:24:07;;;;;;;7.97;4.78;;;;;;;9.99;100.00;102049.72;5013786;28;20045;-82
2024/01/26 03:26:33;;;;;;;6.35;4.63;;;;;;;10.09;100.00;102053.53;5014071;28;20101;-82
2024/01/26 03:28:59;;;;;;;6.85;4.20;;;;;;;9.88;100.00;102014.13;5014001;28;20034;-82
2024/01/26 03:31:24;;;;;;;5.90;4.30;;;;;;;10.13;100.00;102051.91;5013959;28;20034;-82
2024/01/26 03:33:50;;;;;;;6.35;4.60;;;;;;;10.04;100.00;102037.56;5013996;28;20056;-82
2024/01/26 03:36:17;;;;;;;6.80;4.43;;;;;;;10.15;100.00;102047.56;5013672;28;20030;-82
2024/01/26 03:38:43;;;;;;;6.00;4.30;;;;;;;9.94;100.00;102006.44;5013923;28;20044;-82
2024/01/26 03:41:08;;;;;;;8.10;4.40;;;;;;;10.15;100.00;102061.69;5013811;28;20030;-82
2024/01/26 03:43:35;;;;;;;8.30;4.60;;;;;;;10.15;100.00;102051.13;5013785;28;20034;-83
2024/01/26 03:46:02;;;;;;;5.40;4.00;;;;;;;10.14;100.00;102046.66;5013531;28;20037;-83
2024/01/26 03:48:28;;;;;;;10.05;5.00;;;;;;;9.97;100.00;102017.06;5013488;28;20050;-83
2024/01/26 03:50:53;;;;;;;7.72;4.70;;;;;;;10.19;100.00;102044.16;5013571;28;20038;-82
2024/01/26 03:53:18;;;;;;;9.15;4.60;;;;;;;9.99;100.00;102001.31;5013590;28;20046;-82
2024/01/26 03:55:44;;;;;;;8.52;4.60;;;;;;;10.19;100.00;102037.16;5013666;28;20036;-81
2024/01/26 03:58:09;;;;;;;8.77;4.97;;;;;;;10.19;100.00;102034.53;5014029;28;20030;-81
2024/01/26 04:00:35;;;;;;;8.10;4.80;;;;;;;10.11;100.00;102008.72;5013545;28;20112;-82
2024/01/26 04:03:01;;;;;;;7.93;4.70;;;;;;;10.17;100.00;102027.38;5013568;28;20042;-82
2024/01/26 04:05:26;;;;;;;9.23;5.28;;;;;;;10.13;100.00;102007.00;5013556;28;20034;-81
2024/01/26 04:07:51;;;;;;;8.68;5.18;;;;;;;10.15;100.00;102011.50;5013549;28;20045;-81
2024/01/26 04:10:17;;;;;;;7.78;5.25;;;;;;;10.19;100.00;102004.53;5013185;28;20066;-82
2024/01/26 04:12:42;;;;;;;11.65;5.60;;;;;;;10.19;100.00;102017.75;4996070;28;20437;-82
2024/01/26 04:15:08;;;;;;;6.90;5.28;;;;;;;10.18;100.00;101995.72;5013554;28;20029;-82
2024/01/26 04:17:33;;;;;;;12.50;6.07;;;;;;;10.28;100.00;102018.09;5013763;28;20117;-83
2024/01/26 04:19:58;;;;;;;9.13;6.57;;;;;;;10.21;100.00;101979.97;4995783;28;20474;-82
2024/01/26 04:22:24;;;;;;;9.95;6.63;;;;;;;10.27;100.00;101993.41;5013254;28;20072;-82
2024/01/26 04:24:49;;;;;;;11.48;6.53;;;;;;;10.26;100.00;101983.69;5013130;28;20486;-82
2024/01/26 04:27:14;;;;;;;10.05;6.47;;;;;;;10.27;100.00;101981.94;5013414;28;20034;-82
2024/01/26 04:29:40;;;;;;;11.45;7.68;;;;;;;10.24;100.00;101958.06;5013270;28;20034;-82
2024/01/26 04:32:05;;;;;;;10.93;7.47;;;;;;;10.12;100.00;101931.28;5014093;28;20037;-82
2024/01/26 04:34:31;;;;;;;11.43;6.90;;;;;;;10.26;100.00;101959.91;5017311;28;20497;-82
2024/01/26 04:36:57;;;;;;;12.88;7.38;;;;;;;10.24;100.00;101952.78;5017309;28;20030;-82
2024/01/26 04:39:22;;;;;;;12.43;7.22;;;;;;;10.22;100.00;101958.00;5017113;28;20125;-84
2024/01/26 04:41:47;;;;;;;11.82;7.50;;;;;;;10.28;100.00;101958.22;5017139;28;20034;-82
2024/01/26 04:44:13;;;;;;;10.70;7.63;;;;;;;10.14;100.00;101935.72;5016851;28;20073;-82
2024/01/26 04:46:38;;;;;;;11.30;7.40;;;;;;;10.23;100.00;101933.34;5017130;28;20030;-82
2024/01/26 04:49:04;;;;;;;12.00;6.90;;;;;;;10.22;100.00;101931.56;5016843;28;20045;-82
2024/01/26 04:51:29;;;;;;;12.27;7.30;;;;;;;10.19;100.00;101942.06;5016976;28;20085;-82
2024/01/26 04:53:54;;;;;;;9.48;6.57;;;;;;;10.17;100.00;101950.78;5016806;28;20462;-82
2024/01/26 04:56:21;;;;;;;10.82;6.90;;;;;;;10.25;100.00;101960.75;5016922;28;20041;-82
2024/01/26 04:58:47;;;;;;;11.43;7.18;;;;;;;10.16;100.00;101947.25;5016797;28;20033;-83
2024/01/26 05:01:12;;;;;;;11.93;7.15;;;;;;;10.18;100.00;101942.91;5016889;28;20037;-82
2024/01/26 05:03:37;;;;;;;10.82;6.93;;;;;;;10.23;100.00;101954.50;5017032;28;20052;-82
2024/01/26 05:06:04;;;;;;;10.27;6.90;;;;;;;10.15;100.00;101941.91;5016823;28;20072;-82
2024/01/26 05:08:29;;;;;;;10.73;6.95;;;;;;;10.21;100.00;101950.03;5016730;28;20037;-82
2024/01/26 05:10:54;;;;;;;9.57;6.70;;;;;;;10.16;100.00;101928.78;5016652;28;20038;-82
2024/01/26 05:13:20;;;;;;;9.77;7.10;;;;;;;10.22;100.00;101942.13;5016638;28;20069;-82
2024/01/26 05:15:45;;;;;;;11.45;6.70;;;;;;;10.21;100.00;101944.75;5016230;28;20037;-82
2024/01/26 05:18:11;;;;;;;9.32;7.15;;;;;;;10.21;100.00;101932.44;5016548;28;20037;-82
2024/01/26 05:20:36;;;;;;;11.93;7.10;;;;;;;10.19;100.00;101922.66;5016413;28;20479;-82
2024/01/26 05:23:02;;;;;;;10.98;7.10;;;;;;;10.17;100.00;101916.44;5016257;28;20109;-82
2024/01/26 05:25:27;;;;;;;11.20;7.55;;;;;;;10.15;100.00;101913.78;5016385;28;20355;-82
2024/01/26 05:27:52;;;;;;;9.52;7.53;;;;;;;10.18;100.00;101905.91;5016311;28;20034;-82
2024/01/26 05:30:18;;;;;;;12.45;6.63;;;;;;;10.18;100.00;101905.91;5016310;28;20073;-82
2024/01/26 05:32:43;;;;;;;10.57;6.65;;;;;;;10.17;100.00;101898.84;5016205;28;20030;-82
2024/01/26 05:35:09;;;;;;;12.00;7.22;;;;;;;10.08;100.00;101892.41;5016221;28;20088;-82
2024/01/26 05:37:35;;;;;;;10.27;7.25;;;;;;;10.16;100.00;101891.78;5016143;28;20061;-83
2024/01/26 05:40:07;;;;;;;11.23;6.90;;;;;;;10.16;100.00;101909.38;5016270;28;20038;-83
2024/01/26 05:42:33;;;;;;;11.45;7.13;;;;;;;10.10;100.00;101883.66;5016313;28;20076;-84
2024/01/26 05:44:58;;;;;;;11.70;6.78;;;;;;;10.12;100.00;101883.75;5015080;28;20038;-84
2024/01/26 05:47:24;;;;;;;8.82;6.20;;;;;;;10.06;100.00;101858.03;5015670;28;20053;-84
2024/01/26 05:49:50;;;;;;;10.80;7.50;;;;;;;10.07;100.00;101885.34;5016001;28;20128;-84
2024/01/26 05:52:16;;;;;;;10.55;6.75;;;;;;;9.91;100.00;101873.44;5015644;28;20497;-84
2024/01/26 05:54:41;;;;;;;11.18;7.32;;;;;;;9.94;100.00;101877.06;5015680;28;20046;-83
2024/01/26 05:57:07;;;;;;;10.23;6.68;;;;;;;9.98;100.00;101871.03;5015559;28;20117;-83
2024/01/26 05:59:32;;;;;;;11.80;6.78;;;;;;;9.95;100.00;101878.84;5015748;28;20042;-83
2024/01/26 06:01:57;;;;;;;12.95;7.28;;;;;;;9.97;100.00;101865.69;5015629;28;20448;-83
2024/01/26 06:04:23;;;;;;;13.70;7.20;;;;;;;9.86;100.00;101852.19;5015626;28;20049;-84
2024/01/26 06:06:48;;;;;;;12.80;7.38;;;;;;;9.76;100.00;101843.09;5015379;28;20027;-84
2024/01/26 06:09:15;;;;;;;10.18;7.40;;;;;;;9.91;100.00;101857.59;4981815;28;20037;-83
2024/01/26 06:11:43;;;;;;;10.32;7.18;;;;;;;9.90;100.00;101856.69;5015521;28;20041;-83
2024/01/26 06:14:08;;;;;;;9.85;8.23;;;;;;;9.82;100.00;101845.00;4997901;28;20364;-84
2024/01/26 06:16:33;;;;;;;10.85;7.13;;;;;;;9.90;100.00;101856.69;5015382;28;20041;-83
2024/01/26 06:18:59;;;;;;;11.27;7.15;;;;;;;9.88;100.00;101860.13;5015373;28;20068;-84
2024/01/26 06:21:24;;;;;;;12.70;7.72;;;;;;;9.87;100.00;101853.06;5015384;28;20117;-83
2024/01/26 06:23:49;;;;;;;11.55;8.27;;;;;;;9.87;100.00;101859.25;5014793;28;20103;-83
2024/01/26 06:26:15;;;;;;;13.23;8.05;;;;;;;9.82;100.00;101838.84;5015263;28;20036;-83
2024/01/26 06:28:40;;;;;;;14.60;9.02;;;;;;;9.86;100.00;101833.69;5015151;28;20191;-83
2024/01/26 06:31:06;;;;;;;12.63;8.68;;;;;;;9.87;100.00;101832.84;5015037;28;20061;-83
2024/01/26 06:33:32;;;;;;;15.25;9.30;;;;;;;9.87;100.00;101847.78;5015389;28;20034;-83
2024/01/26 06:35:58;;;;;;;13.85;8.93;;;;;;;9.75;100.00;101828.09;5015044;28;20029;-83
2024/01/26 06:38:23;;;;;;;12.02;8.45;;;;;;;9.87;100.00;101842.50;4997578;28;20390;-84
2024/01/26 06:40:49;;;;;;;13.07;7.82;;;;;;;9.87;100.00;101856.59;5014897;28;20490;-85
2024/01/26 06:43:16;;;;;;;10.35;8.10;;;;;;;9.94;100.00;101857.69;5014958;28;20467;-83
2024/01/26 06:45:42;;;;;;;10.55;7.45;;;;;;;9.92;100.00;101848.81;5014836;28;20036;-83
2024/01/26 06:48:08;;;;;;;12.75;8.65;;;;;;;9.92;100.00;101857.63;5014496;28;20058;-83
2024/01/26 06:50:34;;;;;;;9.40;7.38;;;;;;;9.94;100.00;101855.06;5014396;28;20038;-84
2024/01/26 06:52:59;;;;;;;11.88;7.82;;;;;;;9.93;100.00;101846.19;5014529;28;20463;-84
2024/01/26 06:55:25;;;;;;;9.98;8.02;;;;;;;10.00;100.00;101840.25;4996385;28;20133;-84
2024/01/26 06:57:50;;;;;;;9.18;6.97;;;;;;;10.00;100.00;101828.81;5014640;28;20486;-83
2024/01/26 07:00:16;;;;;;;10.55;7.55;;;;;;;10.01;100.00;101835.88;5014582;28;20099;-83
2024/01/26 07:02:42;;;;;;;10.85;7.32;;;;;;;9.89;100.00;101802.13;5014478;28;20030;-83
2024/01/26 07:05:07;;;;;;;11.38;7.65;;;;;;;9.94;100.00;101815.44;5014518;28;20060;-83
2024/01/26 07:07:33;;;;;;;12.57;7.78;;;;;;;10.03;100.00;101836.84;5014527;28;20046;-83
2024/01/26 07:09:58;;;;;;;11.25;7.80;;;;;;;9.97;100.00;101819.03;5014368;28;20124;-85
2024/01/26 07:12:23;;;;;;;11.13;7.93;;;;;;;10.04;100.00;101830.69;5014366;28;20038;-83
2024/01/26 07:14:49;;;;;;;9.90;7.07;;;;;;;9.97;100.00;101815.50;4996690;28;20379;-83
2024/01/26 07:17:14;;;;;;;11.73;7.47;;;;;;;9.94;100.00;101799.59;5014051;28;20066;-83
2024/01/26 07:19:39;;;;;;;10.13;7.60;;;;;;;10.03;100.00;101805.16;5014233;28;20030;-83
2024/01/26 07:22:05;;;;;;;10.98;7.38;;;;;;;10.10;100.00;101809.72;5014251;28;20033;-83
2024/01/26 07:24:31;;;;;;;10.75;6.97;;;;;;;10.08;100.00;101802.63;4996439;28;20446;-83
2024/01/26 07:26:56;;;;;;;10.80;7.05;;;;;;;10.18;100.00;101820.50;5014119;28;20045;-83
2024/01/26 07:29:21;;;;;;;10.88;7.05;;;;;;;10.19;100.00;101817.94;5014036;28;20359;-84
2024/01/26 07:31:47;;;;;;;11.00;7.18;;;;;;;10.22;100.00;101823.28;5013805;28;20037;-83
2024/01/26 07:34:12;;;;;;;8.30;6.93;;;;;;;10.16;100.00;101798.47;5014007;28;20041;-83
2024/01/26 07:36:38;;;;;;;11.43;6.43;;;;;;;10.21;100.00;101797.72;5013620;28;20540;-83
2024/01/26 07:39:05;;;;;;;13.75;7.47;;;;;;;10.20;100.00;101782.72;5013640;28;20033;-83
2024/01/26 07:41:31;;;;;;;10.82;6.85;;;;;;;10.22;100.00;101773.09;5014142;28;20041;-83
2024/01/26 07:43:56;;;;;;;10.68;6.95;;;;;;;10.27;100.00;101792.63;5013838;28;20038;-83
2024/01/26 07:46:21;;;;;;;12.07;6.88;;;;;;;10.39;100.00;101799.09;5013843;28;20037;-84
2024/01/26 07:48:47;;;;;;;8.80;6.95;;;;;;;10.37;100.00;101801.72;4995688;28;20481;-83
2024/01/26 07:51:12;;;;;;;12.10;7.90;;;;;;;10.38;100.00;101816.72;4996054;28;20038;-83
2024/01/26 07:53:37;;;;;;;10.38;6.72;;;;;;;10.34;100.00;101792.81;4995815;28;20026;-83
2024/01/26 07:56:03;;;;;;;10.68;6.32;;;;;;;10.47;100.00;101838.09;4996039;28;20120;-83
2024/01/26 07:58:29;;;;;;;10.85;7.20;;;;;;;10.48;100.00;101839.88;5013553;28;20421;-83
2024/01/26 08:00:54;;;;;;;10.38;7.30;;;;;;;10.54;100.00;101836.53;4995994;28;20037;-82
2024/01/26 08:03:19;;;;;;;9.23;6.82;;;;;;;10.51;100.00;101834.69;5013110;28;20070;-83
2024/01/26 08:05:45;;;;;;;9.70;7.03;;;;;;;10.61;100.00;101851.66;5013384;28;20133;-83
2024/01/26 08:08:10;;;;;;;8.75;6.25;;;;;;;10.64;100.00;101866.72;5012941;28;20038;-84
2024/01/26 08:10:35;;;;;;;9.18;6.95;;;;;;;10.64;100.00;101859.69;5013205;28;20462;-84
2024/01/26 08:13:01;;;;;;;9.95;6.80;;;;;;;10.68;100.00;101856.28;5013384;28;20034;-83
2024/01/26 08:15:26;;;;;;;9.40;6.47;;;;;;;10.69;100.00;101865.97;5013232;28;20088;-83
2024/01/26 08:17:52;;;;;;;10.98;6.20;;;;;;;10.72;100.00;101859.91;5013340;28;20061;-83
2024/01/26 08:20:17;;;;;;;9.02;6.28;;;;;;;10.60;100.00;101831.38;5013311;28;20092;-83
2024/01/26 08:22:43;;;;;;;8.57;6.10;;;;;;;10.70;100.00;101864.22;5013081;28;20030;-83
2024/01/26 08:25:09;;;;;;;12.02;5.97;;;;;;;10.71;100.00;101848.44;5013227;28;20038;-83
2024/01/26 08:27:35;;;;;;;8.55;5.68;;;;;;;10.81;100.00;101856.59;5013286;28;20470;-83
2024/01/26 08:30:01;;;;;;;10.60;6.05;;;;;;;10.72;100.00;101834.34;5013311;28;20068;-83
2024/01/26 08:32:26;;;;;;;9.85;5.90;;;;;;;10.74;100.00;101843.19;5013211;28;20057;-83
2024/01/26 08:34:51;;;;;;;8.13;5.93;;;;;;;10.77;100.00;101856.50;5013473;28;20038;-81
2024/01/26 08:37:17;;;;;;;8.68;5.70;;;;;;;10.85;100.00;101853.19;5012955;28;20030;-84
2024/01/26 08:39:45;;;;;;;9.32;5.22;;;;;;;10.89;100.00;101866.53;5013250;28;20474;-83
2024/01/26 08:42:11;;;;;;;9.52;5.93;;;;;;;10.76;100.00;101844.16;5013011;28;20026;-85
2024/01/26 08:44:37;;;;;;;6.95;5.25;;;;;;;10.90;100.00;101870.94;5013193;28;20041;-84
2024/01/26 08:47:02;;;;;;;9.25;5.80;;;;;;;10.86;100.00;101847.03;5013312;28;20084;-84
2024/01/26 08:49:27;;;;;;;7.30;5.50;;;;;;;10.86;100.00;101847.94;5012862;28;20107;-83
2024/01/26 08:51:53;;;;;;;9.07;5.32;;;;;;;10.97;100.00;101870.25;5013209;28;20112;-84
2024/01/26 08:54:18;;;;;;;6.47;4.05;;;;;;;10.96;100.00;101856.97;5012888;28;20033;-84
2024/01/26 08:56:45;;;;;;;8.00;4.70;;;;;;;10.97;100.00;101859.69;4996015;28;20100;-84
2024/01/26 08:59:10;;;;;;;6.18;4.90;;;;;;;11.01;100.00;101871.25;5013019;28;20121;-83
2024/01/26 09:01:36;;;;;;;7.38;5.38;;;;;;;11.00;100.00;101861.50;5012757;28;20124;-84
2024/01/26 09:04:05;;;;;;;6.47;5.20;;;;;;;10.93;100.00;101857.81;5013637;28;20037;-84
2024/01/26 09:06:37;;;;;;;8.32;5.90;;;;;;;11.04;100.00;101880.13;5013126;28;20061;-83
2024/01/26 09:09:04;;;;;;;10.48;6.25;;;;;;;11.06;100.00;101880.19;5013167;28;20088;-84
2024/01/26 09:11:29;;;;;;;10.52;6.15;;;;;;;10.99;100.00;101870.28;5012699;28;20359;-83
2024/01/26 09:13:56;;;;;;;10.05;6.57;;;;;;;11.03;100.00;101882.72;5012933;28;20049;-83
2024/01/26 09:16:21;;;;;;;8.98;6.70;;;;;;;11.06;100.00;101900.44;5013158;28;20026;-85
2024/01/26 09:18:47;;;;;;;8.88;6.85;;;;;;;10.88;100.00;101888.53;4995949;28;20053;-85
2024/01/26 09:21:12;;;;;;;8.60;7.03;;;;;;;10.99;100.00;101920.53;4999268;28;20459;-85
2024/01/26 09:23:38;;;;;;;8.60;6.93;;;;;;;10.96;100.00;101931.03;5016529;28;20030;-85
2024/01/26 09:26:04;;;;;;;10.35;5.53;;;;;;;10.91;100.00;101957.34;5016359;28;20040;-83
2024/01/26 09:28:29;;;;;;;10.57;4.40;;;;;;;10.85;100.00;101953.66;5016287;28;20105;-84
2024/01/26 09:30:55;;;;;;;8.13;3.90;;;;;;;10.78;100.00;101964.03;5015998;28;20025;-84
2024/01/26 09:33:21;;;;;;;7.53;3.53;;;;;;;10.66;100.00;101932.00;5016702;28;20068;-83
2024/01/26 09:35:47;;;;;;;4.85;3.00;;;;;;;10.65;100.00;101943.41;5016279;28;20029;-84
2024/01/26 09:38:12;;;;;;;7.38;3.40;;;;;;;10.74;100.00;101948.06;5016022;28;20134;-83
2024/01/26 09:40:39;;;;;;;7.40;3.30;;;;;;;10.77;100.00;101962.25;4998488;28;20034;-83
2024/01/26 09:43:06;;;;;;;8.38;3.58;;;;;;;10.80;100.00;101957.94;4998593;28;20520;-83
2024/01/26 09:45:31;;;;;;;8.63;3.50;;;;;;;10.77;100.00;101962.25;5015953;28;20030;-82
2024/01/26 09:47:58;;;;;;;7.65;2.92;;;;;;;10.67;100.00;101967.28;5015707;28;20084;-83
2024/01/26 09:50:26;;;;;;;9.50;2.97;;;;;;;10.68;100.00;101996.38;5015510;28;20390;-83
2024/01/26 09:52:52;;;;;;;9.48;2.45;;;;;;;10.58;100.00;102009.25;5015707;28;20030;-83
2024/01/26 09:55:19;;;;;;;8.00;2.40;;;;;;;10.56;100.00;102061.19;5015786;28;20642;-83
2024/01/26 09:57:45;;;;;;;7.38;2.20;;;;;;;10.35;100.00;102069.34;5015619;28;20053;-83
2024/01/26 10:00:12;;;;;;;6.45;2.25;;;;;;;10.33;100.00;102095.75;5015625;28;20038;-84
2024/01/26 10:02:37;;;;;;;8.05;2.05;;;;;;;10.25;100.00;102091.97;5015583;28;20182;-84
2024/01/26 10:05:03;;;;;;;10.82;2.58;;;;;;;10.23;100.00;102088.31;5015564;28;20378;-83
2024/01/26 10:07:28;;;;;;;9.18;2.08;;;;;;;10.13;100.00;102108.25;5015348;28;20030;-83
2024/01/26 10:09:54;;;;;;;7.53;2.03;;;;;;;10.13;100.00;102105.63;5015398;28;20032;-83
2024/01/26 10:12:20;;;;;;;8.88;2.10;;;;;;;10.16;100.00;102118.94;5015385;28;20037;-83
2024/01/26 10:14:46;;;;;;;9.55;2.30;;;;;;;10.20;100.00;102128.75;5015359;28;20034;-83
2024/01/26 10:17:17;;;;;;;9.85;2.22;;;;;;;10.23;100.00;102138.50;5015327;28;20397;-84
2024/01/26 10:19:42;;;;;;;9.65;2.35;;;;;;;10.11;100.00;102119.66;5015275;28;20107;-84
2024/01/26 10:22:08;;;;;;;9.60;2.60;;;;;;;10.10;100.00;102121.34;5015233;28;20455;-83
2024/01/26 10:24:33;;;;;;;10.65;2.20;;;;;;;10.16;100.00;102148.00;5014753;28;20121;-85
2024/01/26 10:26:58;;;;;;;9.65;2.63;;;;;;;10.02;100.00;102126.41;5014871;28;20475;-84
2024/01/26 10:29:24;;;;;;;11.07;2.22;;;;;;;10.02;100.00;102129.06;5014608;28;20443;-84
2024/01/26 10:31:51;;;;;;;11.63;2.70;;;;;;;10.22;100.00;102150.81;5015018;28;20109;-84
2024/01/26 10:34:17;;;;;;;10.15;2.60;;;;;;;10.30;100.00;102168.72;5014980;28;20079;-84
2024/01/26 10:36:45;;;;;;;13.88;2.58;;;;;;;10.18;100.00;102158.59;5014983;28;20038;-84
2024/01/26 10:39:21;;;;;;;12.93;2.85;;;;;;;10.25;100.00;102174.75;5014911;28;20069;-85
2024/01/26 10:41:48;;;;;;;10.48;2.50;;;;;;;10.13;100.00;102174.28;5014885;28;20026;-85
2024/01/26 10:44:15;;;;;;;12.23;2.67;;;;;;;10.14;100.00;102180.47;5014763;28;20129;-85
2024/01/26 10:46:42;;;;;;;17.75;4.10;;;;;;;10.18;100.00;102201.75;5014827;28;20600;-85
2024/01/26 10:49:10;;;;;;;16.02;2.70;;;;;;;10.13;100.00;102190.13;5014504;28;20046;-85
2024/01/26 10:51:40;;;;;;;14.95;3.00;;;;;;;10.07;100.00;102203.16;4997065;28;20446;-85
2024/01/26 10:54:09;;;;;;;13.50;2.88;;;;;;;10.08;100.00;102196.13;5014419;28;20030;-86
2024/01/26 10:56:35;;;;;;;12.32;2.70;;;;;;;10.17;100.00;102210.53;5014550;28;20121;-86
2024/01/26 10:59:01;;;;;;;11.55;2.55;;;;;;;10.17;100.00;102210.53;5014562;28;20034;-85
2024/01/26 11:01:28;;;;;;;17.00;2.85;;;;;;;10.52;100.00;102237.28;5014476;28;20109;-85
2024/01/26 11:03:56;;;;;;;16.92;2.88;;;;;;;10.82;100.00;102236.47;4996837;28;20041;-85
2024/01/26 11:06:22;;;;;;;13.02;2.80;;;;;;;10.91;100.00;102218.25;5014080;28;20398;-87